createdAt,value
2022-08-23T00:01:24.328Z,100204.38
2022-08-23T00:03:52.049Z,100203.88
2022-08-23T00:06:19.242Z,100198.94
2022-08-23T00:08:48.576Z,100206.56
2022-08-23T00:11:32.149Z,100191.75
2022-08-23T00:14:03.289Z,100200.63
2022-08-23T00:16:29.776Z,100198.00
2022-08-23T00:18:56.597Z,100199.06
2022-08-23T00:21:23.542Z,100200.09
2022-08-23T00:23:50.004Z,100210.31
2022-08-23T00:26:17.889Z,100207.72
2022-08-23T00:28:44.352Z,100203.94
2022-08-23T00:31:10.853Z,100199.44
2022-08-23T00:33:37.328Z,100201.00
2022-08-23T00:36:03.996Z,100203.94
2022-08-23T00:38:33.027Z,100203.78
2022-08-23T00:41:01.144Z,100205.19
2022-08-23T00:43:49.119Z,100205.06
2022-08-23T00:46:46.069Z,100200.56
2022-08-23T00:49:15.862Z,100204.06
2022-08-23T00:51:53.127Z,100205.25
2022-08-23T00:54:21.990Z,100212.94
2022-08-23T00:56:49.893Z,100206.81
2022-08-23T00:59:16.363Z,100208.63
2022-08-23T01:01:44.143Z,100211.81
2022-08-23T01:04:12.913Z,100209.03
2022-08-23T01:06:54.960Z,100210.59
2022-08-23T01:09:22.304Z,100210.75
2022-08-23T01:12:01.335Z,100218.47
2022-08-23T01:14:31.242Z,100211.28
2022-08-23T01:17:30.616Z,100212.88
2022-08-23T01:20:01.487Z,100220.16
2022-08-23T01:22:57.351Z,100225.34
2022-08-23T01:25:26.136Z,100234.97
2022-08-23T01:27:52.904Z,100230.66
2022-08-23T01:30:23.843Z,100228.97
2022-08-23T01:32:56.940Z,100235.69
2022-08-23T01:35:31.295Z,100231.75
2022-08-23T01:37:57.817Z,100230.00
2022-08-23T01:40:24.496Z,100231.59
2022-08-23T01:42:51.017Z,100228.56
2022-08-23T01:45:17.621Z,100229.22
2022-08-23T01:47:44.122Z,100239.22
2022-08-23T01:50:12.998Z,100236.16
2022-08-23T01:52:47.068Z,100240.72
2022-08-23T01:55:14.622Z,100244.28
2022-08-23T01:57:43.207Z,100242.31
2022-08-23T02:00:13.719Z,100238.75
2022-08-23T02:02:41.452Z,100246.25
2022-08-23T02:05:09.471Z,100248.53
2022-08-23T02:07:36.234Z,100250.75
2022-08-23T02:10:02.897Z,100259.88
2022-08-23T02:12:29.864Z,100253.38
2022-08-23T02:14:56.725Z,100253.88
2022-08-23T02:17:23.229Z,100255.13
2022-08-23T02:19:50.719Z,100261.50
2022-08-23T02:22:17.423Z,100259.66
2022-08-23T02:24:46.339Z,100260.84
2022-08-23T02:27:15.303Z,100256.63
2022-08-23T02:32:15.235Z,100264.34
2022-08-23T02:34:43.000Z,100260.84
2022-08-23T02:37:11.058Z,100278.22
2022-08-23T02:39:38.880Z,100277.28
2022-08-23T02:42:06.944Z,100277.03
2022-08-23T02:44:34.722Z,100276.16
2022-08-23T02:47:02.313Z,100275.56
2022-08-23T02:49:29.422Z,100281.13
2022-08-23T02:51:56.522Z,100292.06
2022-08-23T02:54:23.393Z,100284.91
2022-08-23T02:56:49.952Z,100283.75
2022-08-23T02:59:16.390Z,100280.97
2022-08-23T03:01:43.083Z,100275.56
2022-08-23T03:04:10.706Z,100287.00
2022-08-23T03:06:38.435Z,100288.19
2022-08-23T03:09:07.195Z,100282.84
2022-08-23T03:11:34.180Z,100286.69
2022-08-23T03:14:01.274Z,100281.53
2022-08-23T03:16:28.677Z,100296.03
2022-08-23T03:18:55.264Z,100290.00
2022-08-23T03:21:22.421Z,100292.47
2022-08-23T03:23:49.129Z,100300.22
2022-08-23T03:26:16.128Z,100297.50
2022-08-23T03:28:44.219Z,100296.22
2022-08-23T03:31:11.333Z,100290.94
2022-08-23T03:33:38.389Z,100294.38
2022-08-23T03:36:07.519Z,100291.13
2022-08-23T03:38:34.434Z,100297.38
2022-08-23T03:41:01.614Z,100301.06
2022-08-23T03:43:28.363Z,100309.13
2022-08-23T03:45:54.846Z,100302.38
2022-08-23T03:48:21.765Z,100302.72
2022-08-23T03:50:48.307Z,100302.56
2022-08-23T03:53:14.923Z,100304.47
2022-08-23T03:55:43.034Z,100308.06
2022-08-23T03:58:11.225Z,100304.47
2022-08-23T04:00:38.662Z,100304.13
2022-08-23T04:03:05.484Z,100307.06
2022-08-23T04:05:32.016Z,100313.88
2022-08-23T04:07:58.990Z,100314.72
2022-08-23T04:10:25.826Z,100320.59
2022-08-23T04:12:54.751Z,100316.56
2022-08-23T04:15:21.361Z,100325.88
2022-08-23T04:17:47.858Z,100324.47
2022-08-23T04:20:14.505Z,100331.50
2022-08-23T04:22:41.021Z,100333.66
2022-08-23T04:25:32.986Z,100336.53
2022-08-23T04:27:54.837Z,100332.69
2022-08-23T04:30:21.475Z,100340.13
2022-08-23T04:32:48.286Z,100346.69
2022-08-23T04:35:15.861Z,100351.25
2022-08-23T04:37:42.634Z,100352.56
2022-08-23T04:40:29.619Z,100351.75
2022-08-23T04:42:56.413Z,100359.50
2022-08-23T04:45:23.193Z,100361.63
2022-08-23T04:47:49.798Z,100356.03
2022-08-23T04:50:16.883Z,100357.09
2022-08-23T04:52:43.441Z,100366.44
2022-08-23T04:55:10.018Z,100366.59
2022-08-23T04:57:36.618Z,100370.28
2022-08-23T05:00:04.422Z,100374.13
2022-08-23T05:02:30.877Z,100378.78
2022-08-23T05:04:57.415Z,100380.38
2022-08-23T05:07:31.024Z,100380.44
2022-08-23T05:10:13.429Z,100379.22
2022-08-23T05:12:40.455Z,100379.84
2022-08-23T05:15:08.789Z,100379.97
2022-08-23T05:17:36.377Z,100377.34
2022-08-23T05:20:05.099Z,100376.41
2022-08-23T05:22:38.198Z,100378.81
2022-08-23T05:25:05.452Z,100378.59
2022-08-23T05:27:31.944Z,100375.75
2022-08-23T05:29:58.441Z,100379.50
2022-08-23T05:32:25.124Z,100378.91
2022-08-23T05:34:51.621Z,100382.56
2022-08-23T05:37:18.669Z,100382.19
2022-08-23T05:39:45.226Z,100389.63
2022-08-23T05:42:14.628Z,100382.03
2022-08-23T05:44:41.650Z,100388.38
2022-08-23T05:47:12.327Z,100394.38
2022-08-23T05:49:39.579Z,100394.78
2022-08-23T05:52:08.189Z,100399.72
2022-08-23T05:54:35.979Z,100393.84
2022-08-23T05:57:02.496Z,100404.38
2022-08-23T05:59:29.184Z,100397.22
2022-08-23T06:01:56.458Z,100399.94
2022-08-23T06:04:23.345Z,100402.13
2022-08-23T06:06:49.810Z,100400.72
2022-08-23T06:09:18.206Z,100408.00
2022-08-23T06:11:46.644Z,100416.09
2022-08-23T06:14:14.524Z,100412.63
2022-08-23T06:16:44.070Z,100412.00
2022-08-23T06:19:11.389Z,100418.66
2022-08-23T06:21:38.580Z,100419.44
2022-08-23T06:24:07.064Z,100419.31
2022-08-23T06:26:36.898Z,100419.84
2022-08-23T06:29:07.216Z,100422.75
2022-08-23T06:31:49.249Z,100430.81
2022-08-23T06:34:23.254Z,100426.75
2022-08-23T06:36:52.847Z,100424.91
2022-08-23T06:39:21.499Z,100429.69
2022-08-23T06:41:51.163Z,100427.72
2022-08-23T06:44:18.518Z,100432.09
2022-08-23T06:46:47.922Z,100430.19
2022-08-23T06:49:14.987Z,100436.28
2022-08-23T06:51:46.210Z,100440.69
2022-08-23T06:54:14.494Z,100443.09
2022-08-23T06:56:42.599Z,100439.09
2022-08-23T06:59:09.425Z,100440.38
2022-08-23T07:01:47.373Z,100441.41
2022-08-23T07:04:20.374Z,100453.41
2022-08-23T07:06:47.211Z,100449.94
2022-08-23T07:09:13.884Z,100452.16
2022-08-23T07:11:41.498Z,100458.91
2022-08-23T07:14:11.182Z,100454.84
2022-08-23T07:16:42.212Z,100462.97
2022-08-23T07:19:09.190Z,100451.63
2022-08-23T07:21:36.574Z,100466.53
2022-08-23T07:24:03.919Z,100458.41
2022-08-23T07:26:31.313Z,100465.22
2022-08-23T07:28:58.163Z,100460.16
2022-08-23T07:31:28.399Z,100463.66
2022-08-23T07:33:58.788Z,100469.44
2022-08-23T07:36:28.359Z,100468.75
2022-08-23T07:38:56.206Z,100469.25
2022-08-23T07:41:24.759Z,100473.56
2022-08-23T07:43:51.325Z,100468.94
2022-08-23T07:46:18.283Z,100471.28
2022-08-23T07:48:53.835Z,100476.66
2022-08-23T07:51:20.808Z,100477.69
2022-08-23T07:53:47.971Z,100483.63
2022-08-23T07:56:16.440Z,100486.50
2022-08-23T07:58:43.037Z,100493.25
2022-08-23T08:01:12.540Z,100487.38
2022-08-23T08:03:39.805Z,100484.94
2022-08-23T08:06:12.576Z,100493.50
2022-08-23T08:08:41.132Z,100496.41
2022-08-23T08:11:09.308Z,100496.69
2022-08-23T08:13:38.671Z,100501.16
2022-08-23T08:16:05.500Z,100502.09
2022-08-23T08:18:32.262Z,100505.69
2022-08-23T08:20:58.964Z,100499.97
2022-08-23T08:23:25.638Z,100500.41
2022-08-23T08:26:06.317Z,100512.78
2022-08-23T08:28:33.899Z,100500.47
2022-08-23T08:31:00.456Z,100512.94
2022-08-23T08:33:30.728Z,100513.00
2022-08-23T08:35:59.278Z,100509.72
2022-08-23T08:38:30.578Z,100510.53
2022-08-23T08:41:03.414Z,100505.44
2022-08-23T08:43:58.714Z,100508.16
2022-08-23T08:46:47.616Z,100516.38
2022-08-23T08:49:31.985Z,100519.50
2022-08-23T08:52:10.750Z,100519.41
2022-08-23T08:54:38.724Z,100520.78
2022-08-23T08:57:08.969Z,100513.69
2022-08-23T08:59:51.351Z,100527.75
2022-08-23T09:02:32.872Z,100516.72
2022-08-23T09:05:08.261Z,100518.78
2022-08-23T09:07:47.619Z,100520.16
2022-08-23T09:10:20.129Z,100525.88
2022-08-23T09:12:59.244Z,100525.25
2022-08-23T09:15:36.357Z,100522.22
2022-08-23T09:18:15.825Z,100527.09
2022-08-23T09:20:44.084Z,100529.09
2022-08-23T09:23:27.298Z,100532.59
2022-08-23T09:25:59.870Z,100535.44
2022-08-23T09:28:33.878Z,100534.25
2022-08-23T09:31:00.651Z,100541.13
2022-08-23T09:33:45.978Z,100531.47
2022-08-23T09:36:15.541Z,100535.91
2022-08-23T09:39:01.580Z,100525.91
2022-08-23T09:41:43.624Z,100529.63
2022-08-23T09:44:16.810Z,100525.94
2022-08-23T09:46:43.431Z,100528.75
2022-08-23T09:49:28.625Z,100528.19
2022-08-23T09:51:58.816Z,100522.25
2022-08-23T09:54:30.970Z,100528.75
2022-08-23T09:57:04.369Z,100528.03
2022-08-23T09:59:34.700Z,100527.00
2022-08-23T10:02:02.276Z,100522.59
2022-08-23T10:04:29.081Z,100522.38
2022-08-23T10:06:56.317Z,100524.13
2022-08-23T10:09:32.736Z,100521.66
2022-08-23T10:12:02.353Z,100526.09
2022-08-23T10:14:31.161Z,100520.94
2022-08-23T10:17:00.492Z,100519.28
2022-08-23T10:19:44.678Z,100522.78
2022-08-23T10:22:53.165Z,100521.34
2022-08-23T10:25:24.785Z,100526.75
2022-08-23T10:28:39.594Z,100524.34
2022-08-23T10:31:12.003Z,100520.13
2022-08-23T10:34:02.127Z,100519.72
2022-08-23T10:36:38.623Z,100518.06
2022-08-23T10:39:19.682Z,100521.13
2022-08-23T10:42:31.690Z,100521.00
2022-08-23T10:45:16.924Z,100516.31
2022-08-23T10:48:04.181Z,100514.88
2022-08-23T10:50:42.442Z,100510.44
2022-08-23T10:53:15.856Z,100510.19
2022-08-23T10:56:02.845Z,100508.84
2022-08-23T10:58:58.267Z,100512.97
2022-08-23T11:01:34.753Z,100502.28
2022-08-23T11:04:06.114Z,100505.19
2022-08-23T11:06:35.361Z,100502.75
2022-08-23T11:09:21.740Z,100500.53
2022-08-23T11:12:11.254Z,100504.00
2022-08-23T11:15:03.556Z,100502.41
2022-08-23T11:17:43.818Z,100500.66
2022-08-23T11:20:12.497Z,100505.09
2022-08-23T11:22:57.324Z,100501.47
2022-08-23T11:25:23.752Z,100500.50
2022-08-23T11:27:50.273Z,100506.63
2022-08-23T11:30:34.981Z,100504.94
2022-08-23T11:33:16.666Z,100497.09
2022-08-23T11:36:09.092Z,100505.25
2022-08-23T11:38:47.796Z,100498.03
2022-08-23T11:41:20.349Z,100496.38
2022-08-23T11:44:10.583Z,100495.69
2022-08-23T11:46:48.286Z,100499.31
2022-08-23T11:49:20.913Z,100500.19
2022-08-23T11:52:02.625Z,100496.56
2022-08-23T11:54:55.700Z,100501.81
2022-08-23T11:57:43.732Z,100488.56
2022-08-23T12:00:29.417Z,100492.13
2022-08-23T12:03:17.184Z,100490.31
2022-08-23T12:05:52.511Z,100492.13
2022-08-23T12:08:23.103Z,100481.38
2022-08-23T12:10:51.088Z,100484.03
2022-08-23T12:13:20.855Z,100478.84
2022-08-23T12:16:17.515Z,100482.47
2022-08-23T12:18:47.750Z,100479.91
2022-08-23T12:21:26.584Z,100480.81
2022-08-23T12:24:13.586Z,100487.94
2022-08-23T12:26:42.774Z,100477.38
2022-08-23T12:29:09.165Z,100481.75
2022-08-23T12:31:43.127Z,100480.78
2022-08-23T12:34:32.999Z,100479.97
2022-08-23T12:37:12.920Z,100480.91
2022-08-23T12:39:50.128Z,100480.84
2022-08-23T12:42:24.981Z,100474.66
2022-08-23T12:45:12.950Z,100473.78
2022-08-23T12:47:43.266Z,100473.78
2022-08-23T12:50:15.900Z,100480.88
2022-08-23T12:52:42.515Z,100471.16
2022-08-23T12:55:19.433Z,100476.41
2022-08-23T12:57:55.121Z,100477.28
2022-08-23T13:00:33.954Z,100469.34
2022-08-23T13:03:13.849Z,100470.28
2022-08-23T13:06:08.699Z,100472.91
2022-08-23T13:08:39.883Z,100475.59
2022-08-23T13:11:08.931Z,100473.75
2022-08-23T13:13:38.638Z,100463.13
2022-08-23T13:16:41.337Z,100468.47
2022-08-23T13:19:19.218Z,100467.56
2022-08-23T13:21:45.758Z,100462.25
2022-08-23T13:24:37.760Z,100451.59
2022-08-23T13:27:27.256Z,100448.97
2022-08-23T13:30:09.085Z,100456.03
2022-08-23T13:32:45.237Z,100453.44
2022-08-23T13:35:32.195Z,100450.78
2022-08-23T13:38:08.330Z,100451.66
2022-08-23T13:40:59.264Z,100450.78
2022-08-23T13:43:31.515Z,100453.44
2022-08-23T13:46:09.219Z,100449.88
2022-08-23T13:48:37.545Z,100443.72
2022-08-23T13:51:40.737Z,100447.22
2022-08-23T13:54:10.849Z,100440.06
2022-08-23T13:56:42.414Z,100439.97
2022-08-23T13:59:22.594Z,100434.78
2022-08-23T14:01:52.505Z,100441.88
2022-08-23T14:04:19.017Z,100441.91
2022-08-23T14:06:48.694Z,100433.97
2022-08-23T14:09:16.749Z,100432.19
2022-08-23T14:11:43.789Z,100430.44
2022-08-23T14:14:12.482Z,100436.59
2022-08-23T14:16:40.174Z,100437.50
2022-08-23T14:19:16.498Z,100425.97
2022-08-23T14:21:46.779Z,100425.09
2022-08-23T14:24:13.551Z,100421.56
2022-08-23T14:26:51.733Z,100422.41
2022-08-23T14:29:22.294Z,100422.47
2022-08-23T14:31:50.791Z,100427.75
2022-08-23T14:34:17.679Z,100419.75
2022-08-23T14:38:00.235Z,100421.56
2022-08-23T14:39:31.153Z,100420.69
2022-08-23T14:41:58.282Z,100425.06
2022-08-23T14:44:28.978Z,100416.22
2022-08-23T14:46:56.848Z,100415.31
2022-08-23T14:49:23.580Z,100419.75
2022-08-23T14:51:51.132Z,100422.41
2022-08-23T14:54:22.016Z,100418.84
2022-08-23T14:56:51.735Z,100417.06
2022-08-23T14:59:18.325Z,100424.19
2022-08-23T15:01:47.360Z,100425.94
2022-08-23T15:04:18.253Z,100425.91
2022-08-23T15:07:06.903Z,100423.22
2022-08-23T15:09:32.273Z,100412.66
2022-08-23T15:14:46.496Z,100418.84
2022-08-23T15:17:13.716Z,100416.22
2022-08-23T15:19:40.436Z,100420.59
2022-08-23T15:22:18.356Z,100413.53
2022-08-23T15:24:47.766Z,100411.75
2022-08-23T15:27:14.329Z,100406.47
2022-08-23T15:29:40.792Z,100407.34
2022-08-23T15:32:07.811Z,100409.97
2022-08-23T15:34:36.937Z,100406.41
2022-08-23T15:37:06.644Z,100409.13
2022-08-23T15:39:33.270Z,100410.00
2022-08-23T15:41:59.738Z,100398.50
2022-08-23T15:44:26.283Z,100400.25
2022-08-23T15:46:54.599Z,100395.84
2022-08-23T15:49:23.828Z,100397.56
2022-08-23T15:51:50.420Z,100399.34
2022-08-23T15:54:16.910Z,100400.25
2022-08-23T15:56:48.388Z,100400.25
2022-08-23T15:59:18.409Z,100394.06
2022-08-23T16:01:45.482Z,100403.72
2022-08-23T16:04:12.322Z,100403.72
2022-08-23T16:06:40.096Z,100401.97
2022-08-23T16:09:12.586Z,100402.81
2022-08-23T16:11:43.025Z,100402.81
2022-08-23T16:14:09.779Z,100399.28
2022-08-23T16:16:40.726Z,100405.47
2022-08-23T16:19:09.027Z,100407.22
2022-08-23T16:21:36.078Z,100411.63
2022-08-23T16:24:02.838Z,100401.88
2022-08-23T16:26:34.685Z,100401.88
2022-08-23T16:29:03.448Z,100405.44
2022-08-23T16:31:38.572Z,100401.88
2022-08-23T16:34:09.619Z,100413.38
2022-08-23T16:36:36.358Z,100415.09
2022-08-23T16:39:04.445Z,100419.53
2022-08-23T16:41:31.040Z,100414.19
2022-08-23T16:43:57.653Z,100415.03
2022-08-23T16:46:24.530Z,100411.50
2022-08-23T16:48:51.147Z,100407.97
2022-08-23T16:51:18.121Z,100417.69
2022-08-23T16:53:44.588Z,100419.44
2022-08-23T16:56:22.257Z,100419.38
2022-08-23T16:58:48.741Z,100426.44
2022-08-23T17:01:19.574Z,100422.00
2022-08-23T17:03:46.433Z,100421.06
2022-08-23T17:06:13.151Z,100420.22
2022-08-23T17:08:39.731Z,100423.69
2022-08-23T17:11:09.892Z,100426.34
2022-08-23T17:13:36.292Z,100431.59
2022-08-23T17:16:03.077Z,100433.38
2022-08-23T17:18:29.746Z,100433.34
2022-08-23T17:20:56.330Z,100434.25
2022-08-23T17:23:25.930Z,100437.78
2022-08-23T17:25:52.430Z,100435.13
2022-08-23T17:28:19.055Z,100435.94
2022-08-23T17:30:45.577Z,100438.50
2022-08-23T17:33:12.116Z,100437.50
2022-08-23T17:35:39.708Z,100433.91
2022-08-23T17:38:07.172Z,100442.69
2022-08-23T17:40:38.039Z,100442.66
2022-08-23T17:43:06.228Z,100445.28
2022-08-23T17:45:43.341Z,100440.72
2022-08-23T17:48:11.284Z,100446.81
2022-08-23T17:50:39.337Z,100442.34
2022-08-23T17:53:06.817Z,100445.81
2022-08-23T17:55:34.980Z,100446.56
2022-08-23T17:58:03.989Z,100444.69
2022-08-23T18:00:32.422Z,100447.28
2022-08-23T18:02:59.295Z,100460.31
2022-08-23T18:05:27.384Z,100464.66
2022-08-23T18:07:53.905Z,100463.72
2022-08-23T18:10:20.705Z,100469.75
2022-08-23T18:12:47.307Z,100471.41
2022-08-23T18:15:13.862Z,100478.41
2022-08-23T18:17:40.523Z,100480.03
2022-08-23T18:20:10.014Z,100485.28
2022-08-23T18:22:37.343Z,100496.53
2022-08-23T18:25:05.748Z,100492.09
2022-08-23T18:27:50.747Z,100493.69
2022-08-23T18:30:17.466Z,100500.22
2022-08-23T18:32:44.753Z,100496.91
2022-08-23T18:35:11.367Z,100495.59
2022-08-23T18:37:37.984Z,100504.97
2022-08-23T18:40:09.217Z,100508.19
2022-08-23T18:42:36.662Z,100506.19
2022-08-23T18:45:04.487Z,100515.00
2022-08-23T18:47:30.948Z,100517.81
2022-08-23T18:49:57.542Z,100517.75
2022-08-23T18:52:24.111Z,100526.38
2022-08-23T18:54:50.557Z,100530.63
2022-08-23T18:57:17.826Z,100529.69
2022-08-23T18:59:44.435Z,100537.38
2022-08-23T19:02:11.361Z,100542.56
2022-08-23T19:04:37.951Z,100543.44
2022-08-23T19:07:05.108Z,100554.91
2022-08-23T19:09:31.591Z,100554.03
2022-08-23T19:12:00.238Z,100558.38
2022-08-23T19:14:28.153Z,100568.84
2022-08-23T19:16:55.197Z,100563.47
2022-08-23T19:19:22.960Z,100566.97
2022-08-23T19:21:50.219Z,100572.25
2022-08-23T19:24:17.393Z,100565.22
2022-08-23T19:26:47.451Z,100576.59
2022-08-23T19:29:14.887Z,100583.50
2022-08-23T19:31:47.771Z,100581.75
2022-08-23T19:34:16.694Z,100583.44
2022-08-23T19:36:47.368Z,100595.75
2022-08-23T19:39:17.699Z,100591.31
2022-08-23T19:41:44.773Z,100593.91
2022-08-23T19:44:11.641Z,100595.69
2022-08-23T19:46:42.077Z,100597.44
2022-08-23T19:49:09.832Z,100606.25
2022-08-23T19:51:36.655Z,100610.63
2022-08-23T19:54:04.947Z,100615.84
2022-08-23T19:56:50.444Z,100611.34
2022-08-23T19:59:21.637Z,100615.56
2022-08-23T20:01:49.732Z,100620.94
2022-08-23T20:04:17.315Z,100625.25
2022-08-23T20:06:43.852Z,100628.84
2022-08-23T20:09:10.419Z,100631.44
2022-08-23T20:11:37.143Z,100626.16
2022-08-23T20:14:05.398Z,100632.13
2022-08-23T20:16:32.762Z,100631.91
2022-08-23T20:19:00.498Z,100640.53
2022-08-23T20:21:27.636Z,100647.53
2022-08-23T20:24:06.322Z,100649.34
2022-08-23T20:26:34.493Z,100654.69
2022-08-23T20:29:03.995Z,100659.94
2022-08-23T20:31:35.009Z,100655.44
2022-08-23T20:34:02.065Z,100662.41
2022-08-23T20:36:29.247Z,100668.63
2022-08-23T20:39:00.409Z,100666.75
2022-08-23T20:41:29.615Z,100666.59
2022-08-23T20:43:56.648Z,100667.06
2022-08-23T20:46:23.257Z,100669.59
2022-08-23T20:48:51.633Z,100679.38
2022-08-23T20:51:19.473Z,100681.22
2022-08-23T20:53:46.828Z,100681.88
2022-08-23T20:56:13.472Z,100687.88
2022-08-23T20:58:40.304Z,100683.44
2022-08-23T21:01:09.336Z,100685.09
2022-08-23T21:03:38.257Z,100687.63
2022-08-23T21:06:20.158Z,100683.84
2022-08-23T21:08:53.986Z,100683.63
2022-08-23T21:11:21.900Z,100689.50
2022-08-23T21:13:48.664Z,100690.19
2022-08-23T21:16:16.779Z,100694.56
2022-08-23T21:18:43.740Z,100693.75
2022-08-23T21:21:10.732Z,100688.50
2022-08-23T21:23:37.916Z,100688.34
2022-08-23T21:26:05.705Z,100695.88
2022-08-23T21:28:32.766Z,100696.69
2022-08-23T21:31:12.584Z,100702.91
2022-08-23T21:33:40.580Z,100704.59
2022-08-23T21:36:08.148Z,100702.03
2022-08-23T21:38:34.764Z,100701.94
2022-08-23T21:41:05.091Z,100705.88
2022-08-23T21:43:32.829Z,100709.16
2022-08-23T21:45:59.435Z,100705.50
2022-08-23T21:48:26.088Z,100711.50
2022-08-23T21:50:54.088Z,100706.13
2022-08-23T21:53:20.684Z,100714.75
2022-08-23T21:55:47.145Z,100710.16
2022-08-23T21:58:13.987Z,100714.41
2022-08-23T22:00:41.255Z,100717.09
2022-08-23T22:03:09.082Z,100720.97
2022-08-23T22:05:40.538Z,100716.88
2022-08-23T22:08:07.071Z,100726.56
2022-08-23T22:10:36.996Z,100725.41
2022-08-23T22:13:05.555Z,100726.97
2022-08-23T22:15:33.208Z,100722.03
2022-08-23T22:18:00.622Z,100728.94
2022-08-23T22:20:28.488Z,100728.16
2022-08-23T22:22:55.014Z,100728.16
2022-08-23T22:25:21.544Z,100722.19
2022-08-23T22:27:48.047Z,100721.50
2022-08-23T22:30:15.612Z,100727.47
2022-08-23T22:32:42.776Z,100722.81
2022-08-23T22:35:11.390Z,100733.16
2022-08-23T22:37:49.429Z,100729.13
2022-08-23T22:40:25.240Z,100731.00
2022-08-23T22:42:51.756Z,100739.28
2022-08-23T22:45:19.010Z,100745.09
2022-08-23T22:47:45.516Z,100744.75
2022-08-23T22:50:12.437Z,100743.97
2022-08-23T22:52:40.360Z,100748.66
2022-08-23T22:55:07.138Z,100749.69
2022-08-23T22:57:33.679Z,100754.84
2022-08-23T23:00:05.792Z,100757.94
2022-08-23T23:02:37.785Z,100763.31
2022-08-23T23:05:05.234Z,100765.84
2022-08-23T23:07:50.236Z,100761.28
2022-08-23T23:10:16.978Z,100755.19
2022-08-23T23:12:43.424Z,100765.38
2022-08-23T23:15:10.215Z,100754.38
2022-08-23T23:17:36.710Z,100763.25
2022-08-23T23:20:23.324Z,100752.84
2022-08-23T23:22:51.157Z,100755.97
2022-08-23T23:25:17.888Z,100759.75
2022-08-23T23:27:45.060Z,100761.59
2022-08-23T23:30:11.921Z,100754.50
2022-08-23T23:32:38.605Z,100759.47
2022-08-23T23:35:07.349Z,100761.78
2022-08-23T23:37:33.803Z,100765.38
2022-08-23T23:40:00.418Z,100763.69
2022-08-23T23:42:27.007Z,100763.78
2022-08-23T23:44:53.504Z,100762.25
2022-08-23T23:47:20.030Z,100759.94
2022-08-23T23:49:47.332Z,100759.63
2022-08-23T23:52:13.822Z,100763.69
2022-08-23T23:54:41.210Z,100763.00
2022-08-23T23:57:08.072Z,100756.81
2022-08-23T23:59:35.052Z,100755.84
